This is the latest recevied weather packets stored in our database for station/object IW1RID-3. If no packets are shown the sender has not sent any weather packets the latest 10 day(s).
| Time | Temp. | Humidity | Pressure | Rain* | Wind** | Luminosity | Snow |
|---|---|---|---|---|---|---|---|
| 1777710962 | 20° C | 29% | 1084.7 hPa | - | - | - | - |
| 1777709757 | 19.44° C | 29% | 1084.6 hPa | - | - | - | - |
| 1777708553 | 18.33° C | 30% | 1084.9 hPa | - | - | - | - |
| 1777707347 | 15.56° C | 47% | 1085 hPa | - | - | - | - |
| 1777706142 | 15° C | 48% | 1085 hPa | - | - | - | - |
| 1777704936 | 13.33° C | 54% | 1085.1 hPa | - | - | - | - |
| 1777703732 | 12.78° C | 55% | 1085.1 hPa | - | - | - | - |
| 1777702527 | 11.67° C | 60% | 1085.2 hPa | - | - | - | - |
| 1777700118 | 10.56° C | 63% | 1085.1 hPa | - | - | - | - |
| 1777698912 | 10.56° C | 63% | 1085 hPa | - | - | - | - |
| 1777697707 | 10.56° C | 62% | 1085 hPa | - | - | - | - |
| 1777696502 | 11.11° C | 59% | 1084.8 hPa | - | - | - | - |
| 1777695297 | 10.56° C | 61% | 1084.9 hPa | - | - | - | - |
| 1777694092 | 10.56° C | 64% | 1084.9 hPa | - | - | - | - |
| 1777691683 | 10.56° C | 64% | 1084.8 hPa | - | - | - | - |
| 1777690478 | 11.11° C | 62% | 1084.9 hPa | - | - | - | - |
| 1777689275 | 11.11° C | 62% | 1084.9 hPa | - | - | - | - |
| 1777688069 | 11.67° C | 60% | 1084.8 hPa | - | - | - | - |
| 1777686864 | 11.67° C | 60% | 1084.8 hPa | - | - | - | - |
| 1777685660 | 11.11° C | 63% | 1084.7 hPa | - | - | - | - |
| 1777684455 | 11.67° C | 62% | 1084.5 hPa | - | - | - | - |
| 1777683250 | 11.67° C | 63% | 1084.4 hPa | - | - | - | - |
| 1777682045 | 11.67° C | 65% | 1084.4 hPa | - | - | - | - |
| 1777680841 | 12.22° C | 62% | 1084.6 hPa | - | - | - | - |
| 1777679637 | 12.22° C | 63% | 1084.6 hPa | - | - | - | - |
* Rain since midnight (hover to see other rain measurements)
** Current wind speed in m/s (hover to see current wind gust speed)